Time;durP1;ratioP1;P1;durP2;ratioP2;P2;SDS_P1;SDS_P2;PMS_P1;PMS_P2;Temp;Humidity;BMP_temperature;BMP_pressure;BME280_temperature;BME280_humidity;BME280_pressure;Samples;Min_cycle;Max_cycle;Signal;HPM_P1;HPM_P2
2021/12/14 00:01:56;;;;;;;3.08;2.88;;;5.50;99.90;;;;;;5024088;28;20728;-71
2021/12/14 00:04:28;;;;;;;2.80;2.67;;;5.50;99.90;;;;;;5019758;28;20227;-72
2021/12/14 00:06:56;;;;;;;3.28;2.97;;;5.50;99.90;;;;;;5023563;28;20247;-70
2021/12/14 00:09:31;;;;;;;3.03;2.83;;;5.40;99.90;;;;;;5019057;28;20846;-72
2021/12/14 00:12:14;;;;;;;2.90;2.80;;;5.40;99.90;;;;;;5021771;28;20304;-73
2021/12/14 00:15:04;;;;;;;2.60;2.40;;;5.40;99.90;;;;;;5020280;28;20220;-71
2021/12/14 00:17:40;;;;;;;2.72;2.63;;;5.40;99.90;;;;;;5017105;28;20219;-71
2021/12/14 00:20:15;;;;;;;2.78;2.65;;;5.30;99.90;;;;;;5023921;28;20238;-71
2021/12/14 00:25:33;;;;;;;1.98;1.88;;;5.20;99.90;;;;;;5022783;28;20705;-72
2021/12/14 00:28:03;;;;;;;2.70;2.60;;;5.20;99.90;;;;;;5018853;28;20289;-71
2021/12/14 00:30:32;;;;;;;2.83;2.72;;;5.20;99.90;;;;;;5026058;28;20227;-72
2021/12/14 00:32:59;;;;;;;2.80;2.60;;;5.30;99.90;;;;;;5024444;28;20216;-74
2021/12/14 00:35:27;;;;;;;2.85;2.65;;;5.20;99.90;;;;;;5025401;28;20227;-72
2021/12/14 00:37:56;;;;;;;3.35;3.15;;;5.20;99.90;;;;;;5024486;28;20219;-72
2021/12/14 00:40:26;;;;;;;3.17;2.97;;;5.20;99.90;;;;;;5022542;28;20232;-72
2021/12/14 00:42:56;;;;;;;3.05;2.85;;;5.20;99.90;;;;;;5024813;28;20285;-71
2021/12/14 00:45:27;;;;;;;3.40;3.20;;;5.10;99.90;;;;;;5024203;28;20220;-71
2021/12/14 00:47:54;;;;;;;2.88;2.67;;;5.10;99.90;;;;;;5024083;28;20220;-71
2021/12/14 00:50:24;;;;;;;3.05;2.85;;;5.10;99.90;;;;;;5019383;28;20227;-72
2021/12/14 00:52:51;;;;;;;2.80;2.70;;;5.10;99.90;;;;;;5019665;28;20511;-72
2021/12/14 00:55:25;;;;;;;2.85;2.65;;;5.00;99.90;;;;;;5023628;28;20924;-71
2021/12/14 00:57:53;;;;;;;2.75;2.63;;;5.00;99.90;;;;;;5019267;28;20263;-71
2021/12/14 01:00:24;;;;;;;3.10;2.90;;;5.00;99.90;;;;;;5021060;28;20362;-72
2021/12/14 01:02:51;;;;;;;2.47;2.35;;;5.00;99.90;;;;;;4997254;28;21153;-72
2021/12/14 01:05:24;;;;;;;2.60;2.50;;;5.00;99.90;;;;;;4989038;28;20301;-71
2021/12/14 01:07:52;;;;;;;2.63;2.53;;;5.00;99.90;;;;;;5018250;28;20508;-72
2021/12/14 01:10:24;;;;;;;2.78;2.67;;;5.10;99.90;;;;;;5018433;28;20535;-71
2021/12/14 01:12:56;;;;;;;3.05;2.85;;;5.10;99.90;;;;;;5017891;28;20760;-71
2021/12/14 01:15:42;;;;;;;2.60;2.50;;;5.10;99.90;;;;;;5021057;28;20245;-72
2021/12/14 01:18:27;;;;;;;2.33;2.22;;;5.00;99.90;;;;;;5016291;28;20219;-71
2021/12/14 01:21:02;;;;;;;2.70;2.60;;;4.90;99.90;;;;;;5019332;28;20584;-71
2021/12/14 01:23:33;;;;;;;2.65;2.55;;;4.90;99.90;;;;;;5024384;28;20222;-72
2021/12/14 01:26:06;;;;;;;2.45;2.35;;;4.90;99.90;;;;;;5026671;28;20310;-72
2021/12/14 01:28:34;;;;;;;3.10;2.90;;;4.90;99.90;;;;;;5023183;28;20249;-73
2021/12/14 01:31:10;;;;;;;2.80;2.70;;;4.90;99.90;;;;;;5021709;28;20594;-71
2021/12/14 01:33:39;;;;;;;2.90;2.80;;;5.00;99.90;;;;;;5021822;28;20226;-71
2021/12/14 01:36:21;;;;;;;2.70;2.60;;;5.00;99.90;;;;;;5020973;28;21277;-71
2021/12/14 01:39:08;;;;;;;2.72;2.60;;;5.00;99.90;;;;;;5014411;28;20279;-72
2021/12/14 01:41:36;;;;;;;2.53;2.42;;;5.00;99.90;;;;;;5019702;28;20258;-71
2021/12/14 01:44:04;;;;;;;2.53;2.33;;;5.00;99.90;;;;;;5024291;28;20293;-71
2021/12/14 01:46:35;;;;;;;2.70;2.60;;;5.00;99.90;;;;;;5020098;28;20219;-72
2021/12/14 01:49:06;;;;;;;2.35;2.25;;;5.00;99.90;;;;;;5021474;28;20748;-74
2021/12/14 01:51:35;;;;;;;2.60;2.50;;;5.00;99.90;;;;;;5022210;28;20223;-73
2021/12/14 01:54:04;;;;;;;2.90;2.70;;;4.90;99.90;;;;;;5025565;28;20230;-71
2021/12/14 01:56:32;;;;;;;2.60;2.50;;;4.90;99.90;;;;;;5022387;28;20617;-71
2021/12/14 01:59:09;;;;;;;2.72;2.63;;;4.90;99.90;;;;;;5022294;28;20225;-72
2021/12/14 02:01:46;;;;;;;2.55;2.45;;;4.90;99.90;;;;;;5025679;28;23293;-74
2021/12/14 02:04:20;;;;;;;3.00;2.80;;;4.90;99.90;;;;;;5027279;28;20292;-72
2021/12/14 02:06:55;;;;;;;2.55;2.45;;;4.90;99.90;;;;;;5026617;28;20216;-71
2021/12/14 02:09:24;;;;;;;2.63;2.50;;;4.90;99.90;;;;;;5024102;28;20231;-73
2021/12/14 02:11:55;;;;;;;2.58;2.47;;;4.90;99.90;;;;;;5024271;28;20227;-72
2021/12/14 02:14:23;;;;;;;2.33;2.22;;;4.90;99.90;;;;;;5006353;28;20229;-71
2021/12/14 02:16:55;;;;;;;2.50;2.40;;;4.90;99.90;;;;;;5028199;28;20216;-72
2021/12/14 02:19:22;;;;;;;2.08;1.98;;;4.90;99.90;;;;;;5025629;28;20236;-71
2021/12/14 02:21:53;;;;;;;2.45;2.35;;;4.90;99.90;;;;;;5021216;28;20626;-71
2021/12/14 02:24:22;;;;;;;2.70;2.60;;;4.80;99.90;;;;;;5052403;22;20779;-76
2021/12/14 02:26:52;;;;;;;2.70;2.58;;;4.90;99.90;;;;;;5039523;28;20646;-75
2021/12/14 02:29:26;;;;;;;2.10;2.00;;;4.90;99.90;;;;;;5040352;28;20231;-74
2021/12/14 02:32:00;;;;;;;2.92;2.72;;;4.90;99.90;;;;;;5038947;28;20857;-76
2021/12/14 02:34:27;;;;;;;2.65;2.45;;;4.90;99.90;;;;;;5041977;28;20226;-76
2021/12/14 02:36:57;;;;;;;2.70;2.60;;;4.90;99.90;;;;;;5038206;28;20223;-77
2021/12/14 02:39:46;;;;;;;2.60;2.50;;;4.90;99.90;;;;;;5037543;28;20708;-76
2021/12/14 02:42:15;;;;;;;2.78;2.58;;;4.80;99.90;;;;;;5043989;28;20602;-76
2021/12/14 02:44:46;;;;;;;2.67;2.47;;;4.80;99.90;;;;;;5034534;28;20288;-76
2021/12/14 02:47:16;;;;;;;2.53;2.40;;;4.80;99.90;;;;;;5044419;28;20639;-75
2021/12/14 02:49:44;;;;;;;2.25;2.15;;;4.70;99.90;;;;;;5040210;28;20242;-76
2021/12/14 02:52:20;;;;;;;3.00;2.80;;;4.60;99.90;;;;;;5007615;28;20218;-76
2021/12/14 02:54:52;;;;;;;2.47;2.38;;;4.60;99.90;;;;;;5042087;28;20268;-77
2021/12/14 02:57:24;;;;;;;2.90;2.80;;;4.50;99.90;;;;;;5045076;28;20233;-77
2021/12/14 02:59:53;;;;;;;2.95;2.80;;;4.50;99.90;;;;;;5042134;28;20235;-76
2021/12/14 03:02:24;;;;;;;2.45;2.35;;;4.50;99.90;;;;;;5040567;28;20234;-77
2021/12/14 03:04:53;;;;;;;2.40;2.30;;;4.40;99.90;;;;;;5039234;28;20235;-76
2021/12/14 03:07:27;;;;;;;2.38;2.28;;;4.40;99.90;;;;;;5034592;28;20234;-76
2021/12/14 03:09:59;;;;;;;2.67;2.58;;;4.50;99.90;;;;;;5037491;28;20219;-75
2021/12/14 03:12:31;;;;;;;3.03;2.83;;;4.50;99.90;;;;;;5039923;28;20218;-77
2021/12/14 03:15:02;;;;;;;2.92;2.72;;;4.50;99.90;;;;;;5043833;28;20637;-76
2021/12/14 03:17:30;;;;;;;2.80;2.70;;;4.50;99.90;;;;;;5036698;28;20233;-76
2021/12/14 03:20:00;;;;;;;2.88;2.70;;;4.50;99.90;;;;;;5041427;28;20244;-78
2021/12/14 03:22:35;;;;;;;2.92;2.80;;;4.40;99.90;;;;;;5035926;28;20705;-77
2021/12/14 03:25:02;;;;;;;3.30;3.10;;;4.40;99.90;;;;;;5002236;28;20735;-76
2021/12/14 03:27:29;;;;;;;2.63;2.53;;;4.40;99.90;;;;;;5040374;28;20481;-76
2021/12/14 03:29:58;;;;;;;2.70;2.50;;;4.40;99.90;;;;;;5040063;28;20230;-76
2021/12/14 03:32:25;;;;;;;2.20;2.10;;;4.40;99.90;;;;;;5029539;28;20234;-76
2021/12/14 03:34:52;;;;;;;2.65;2.55;;;4.40;99.90;;;;;;5043469;28;20234;-76
2021/12/14 03:37:24;;;;;;;2.53;2.42;;;4.50;99.90;;;;;;5038706;28;20231;-78
2021/12/14 03:40:00;;;;;;;2.63;2.53;;;4.50;99.90;;;;;;5041030;28;20219;-76
2021/12/14 03:42:36;;;;;;;2.60;2.50;;;4.50;99.90;;;;;;5037540;28;20226;-75
2021/12/14 03:45:08;;;;;;;2.63;2.53;;;4.60;99.90;;;;;;5037491;28;20246;-75
2021/12/14 03:47:39;;;;;;;2.90;2.80;;;4.60;99.90;;;;;;5040417;28;20211;-75
2021/12/14 03:50:10;;;;;;;2.95;2.83;;;4.50;99.90;;;;;;5040270;28;20268;-77
2021/12/14 03:52:39;;;;;;;3.10;2.90;;;4.50;99.90;;;;;;5016013;28;20242;-76
2021/12/14 03:55:14;;;;;;;2.55;2.45;;;4.40;99.90;;;;;;5033129;28;20239;-74
2021/12/14 03:57:41;;;;;;;2.70;2.60;;;4.40;99.90;;;;;;5037368;28;20219;-75
2021/12/14 04:00:12;;;;;;;2.67;2.58;;;4.40;99.90;;;;;;5034099;28;20231;-78
2021/12/14 04:02:39;;;;;;;2.55;2.45;;;4.40;99.90;;;;;;5037302;28;20301;-77
2021/12/14 04:05:11;;;;;;;2.42;2.33;;;4.50;99.90;;;;;;5039128;28;20222;-75
2021/12/14 04:07:41;;;;;;;3.10;2.90;;;4.50;99.90;;;;;;5037571;28;20227;-76
2021/12/14 04:10:12;;;;;;;2.95;2.75;;;4.40;99.90;;;;;;5038077;28;20608;-83
2021/12/14 04:12:39;;;;;;;2.70;2.60;;;4.30;99.90;;;;;;5041233;28;20214;-76
2021/12/14 04:15:07;;;;;;;3.28;3.08;;;4.30;99.90;;;;;;5043464;28;20249;-77
2021/12/14 04:17:34;;;;;;;2.60;2.50;;;4.20;99.90;;;;;;5038422;28;20261;-77
2021/12/14 04:20:02;;;;;;;2.78;2.67;;;4.10;99.90;;;;;;5038844;28;20716;-76
2021/12/14 04:22:33;;;;;;;3.00;2.80;;;4.10;99.90;;;;;;5033971;28;20227;-75
2021/12/14 04:25:08;;;;;;;2.40;2.30;;;4.10;99.90;;;;;;5040499;28;20747;-75
2021/12/14 04:27:37;;;;;;;3.17;2.97;;;4.10;99.90;;;;;;5041258;28;20210;-76
2021/12/14 04:30:07;;;;;;;2.72;2.63;;;4.10;99.90;;;;;;5034680;28;20234;-75
2021/12/14 04:32:34;;;;;;;2.47;2.38;;;4.10;99.90;;;;;;5039121;28;20211;-76
2021/12/14 04:35:01;;;;;;;2.22;2.13;;;4.20;99.90;;;;;;5035510;28;20218;-76
2021/12/14 04:37:28;;;;;;;2.45;2.35;;;4.20;99.90;;;;;;5036076;28;20219;-76
2021/12/14 04:40:00;;;;;;;2.53;2.42;;;4.20;99.90;;;;;;5039387;28;20218;-76
2021/12/14 04:53:43;;;;;;;2.47;2.38;;;4.30;99.90;;;;;;5039890;28;20704;-75
2021/12/14 04:56:15;;;;;;;2.60;2.50;;;4.30;99.90;;;;;;5035213;28;20288;-75
2021/12/14 04:58:45;;;;;;;2.50;2.40;;;4.20;99.90;;;;;;5038200;28;20219;-75
2021/12/14 05:01:15;;;;;;;2.42;2.33;;;4.10;99.90;;;;;;5039291;28;20310;-75
2021/12/14 05:03:45;;;;;;;2.50;2.40;;;4.00;99.90;;;;;;5028993;28;20219;-76
2021/12/14 05:06:16;;;;;;;2.58;2.47;;;4.00;99.90;;;;;;5035010;28;20720;-75
2021/12/14 05:11:30;;;;;;;2.90;2.80;;;4.00;99.90;;;;;;5038803;28;20229;-74
2021/12/14 05:14:03;;;;;;;3.38;3.13;;;4.10;99.90;;;;;;5035054;28;20235;-76
2021/12/14 05:16:32;;;;;;;2.80;2.70;;;4.10;99.90;;;;;;5042044;28;20736;-77
2021/12/14 05:19:02;;;;;;;2.63;2.53;;;4.10;99.90;;;;;;5038224;28;20281;-77
2021/12/14 05:21:35;;;;;;;3.45;3.25;;;4.10;99.90;;;;;;5035646;28;20242;-79
2021/12/14 05:24:04;;;;;;;3.00;2.80;;;4.20;99.90;;;;;;5038340;28;20222;-77
2021/12/14 05:26:32;;;;;;;2.50;2.40;;;4.20;99.90;;;;;;5037387;28;20234;-77
2021/12/14 05:28:59;;;;;;;3.17;2.97;;;4.20;99.90;;;;;;5031850;28;20223;-76
2021/12/14 05:31:26;;;;;;;2.60;2.50;;;4.20;99.90;;;;;;5025583;28;20223;-77
2021/12/14 05:33:55;;;;;;;3.28;3.08;;;4.20;99.90;;;;;;5034542;28;20451;-79
2021/12/14 05:36:24;;;;;;;2.90;2.80;;;4.20;99.90;;;;;;5018412;28;20284;-76
2021/12/14 05:38:58;;;;;;;4.70;3.72;;;4.10;99.90;;;;;;5047975;28;20957;-75
2021/12/14 05:44:18;;;;;;;5.80;5.18;;;4.10;99.90;;;;;;5003819;28;20234;-78
2021/12/14 05:46:50;;;;;;;6.10;4.88;;;4.20;99.90;;;;;;5039178;28;20238;-78
2021/12/14 05:49:21;;;;;;;4.55;4.15;;;4.20;99.90;;;;;;5038584;28;20221;-81
2021/12/14 05:51:50;;;;;;;4.47;4.07;;;4.20;99.90;;;;;;5036335;28;20285;-75
2021/12/14 05:54:22;;;;;;;4.15;3.83;;;4.20;99.90;;;;;;5036431;28;20227;-75
2021/12/14 05:56:50;;;;;;;3.72;3.47;;;4.20;99.90;;;;;;5039454;28;20745;-75
2021/12/14 05:59:23;;;;;;;3.67;3.38;;;4.20;99.90;;;;;;5041089;28;20222;-77
2021/12/14 06:01:51;;;;;;;3.40;3.20;;;4.10;99.90;;;;;;5036529;28;20232;-76
2021/12/14 06:04:20;;;;;;;3.83;3.58;;;4.10;99.90;;;;;;5036696;28;20230;-78
2021/12/14 06:06:51;;;;;;;3.55;3.35;;;4.00;99.90;;;;;;5036791;28;20222;-76
2021/12/14 06:09:23;;;;;;;3.08;2.88;;;4.10;99.90;;;;;;5038259;28;20234;-75
2021/12/14 06:11:54;;;;;;;3.22;3.03;;;4.10;99.90;;;;;;5037013;28;20231;-79
2021/12/14 06:14:24;;;;;;;3.30;3.10;;;4.10;99.90;;;;;;5039757;28;20234;-77
2021/12/14 06:16:56;;;;;;;2.92;2.83;;;4.10;99.90;;;;;;5009160;28;20227;-75
2021/12/14 06:19:27;;;;;;;2.88;2.78;;;4.10;99.90;;;;;;5052013;28;20227;-78
2021/12/14 06:21:56;;;;;;;3.28;3.08;;;4.10;99.90;;;;;;5035547;28;20219;-75
2021/12/14 06:24:26;;;;;;;3.58;3.28;;;4.10;99.90;;;;;;5037302;28;20231;-80
2021/12/14 06:26:56;;;;;;;3.50;3.30;;;4.10;99.90;;;;;;5034792;28;20223;-80
2021/12/14 06:29:26;;;;;;;3.80;3.50;;;4.10;99.90;;;;;;5042620;28;20651;-76
2021/12/14 06:31:53;;;;;;;3.40;3.20;;;4.00;99.90;;;;;;5038957;28;20222;-77
2021/12/14 06:34:24;;;;;;;3.20;3.00;;;3.90;99.90;;;;;;5040632;28;20802;-75
2021/12/14 06:38:06;;;;;;;3.03;2.88;;;3.80;99.90;;;;;;5039569;28;20227;-79
2021/12/14 06:40:35;;;;;;;3.30;3.10;;;3.80;99.90;;;;;;5034296;28;20734;-76
2021/12/14 06:43:05;;;;;;;3.22;3.03;;;3.90;99.90;;;;;;5037893;28;20277;-77
2021/12/14 06:45:35;;;;;;;3.35;3.15;;;3.90;99.90;;;;;;5039221;28;20231;-78
2021/12/14 06:48:07;;;;;;;3.13;2.92;;;3.90;99.90;;;;;;5043331;28;20242;-79
2021/12/14 06:50:39;;;;;;;3.00;2.80;;;3.90;99.90;;;;;;5034677;28;20222;-77
2021/12/14 06:53:10;;;;;;;2.70;2.60;;;3.90;99.90;;;;;;5007843;28;20218;-75
2021/12/14 06:55:39;;;;;;;3.28;3.08;;;3.90;99.90;;;;;;5036017;28;20601;-77
2021/12/14 06:58:09;;;;;;;2.65;2.55;;;3.90;99.90;;;;;;5039943;28;20219;-75
2021/12/14 07:00:39;;;;;;;2.95;2.80;;;4.00;99.90;;;;;;4993427;28;23895;-75
2021/12/14 07:03:07;;;;;;;3.00;2.80;;;4.00;99.90;;;;;;5038239;28;20288;-74
2021/12/14 07:05:35;;;;;;;2.90;2.80;;;4.00;99.90;;;;;;5038547;28;20286;-81
2021/12/14 07:08:12;;;;;;;3.25;3.13;;;4.10;99.90;;;;;;5044789;28;20214;-80
2021/12/14 07:10:42;;;;;;;2.85;2.75;;;4.20;99.90;;;;;;5037646;28;20759;-78
2021/12/14 07:13:15;;;;;;;3.03;2.83;;;4.20;99.90;;;;;;5043100;28;20222;-80
2021/12/14 07:15:43;;;;;;;3.38;3.17;;;4.20;99.90;;;;;;5041506;28;20238;-79
2021/12/14 07:18:10;;;;;;;3.42;3.22;;;4.10;99.90;;;;;;5036877;28;20257;-80
2021/12/14 07:20:42;;;;;;;3.63;3.33;;;4.10;99.90;;;;;;5035762;28;20227;-77
2021/12/14 07:23:28;;;;;;;3.00;2.83;;;4.00;99.90;;;;;;5042379;28;20344;-75
2021/12/14 07:25:59;;;;;;;3.72;3.50;;;3.90;99.90;;;;;;5040883;28;20592;-79
2021/12/14 07:28:31;;;;;;;3.75;3.45;;;3.90;99.90;;;;;;5042678;28;20227;-79
2021/12/14 07:31:02;;;;;;;3.83;3.53;;;3.80;99.90;;;;;;5041546;28;20280;-78
2021/12/14 07:33:31;;;;;;;4.10;3.80;;;3.70;99.90;;;;;;5038879;28;20572;-78
2021/12/14 07:36:01;;;;;;;4.28;3.88;;;3.70;99.90;;;;;;5040038;28;20276;-80
2021/12/14 07:38:45;;;;;;;4.32;4.03;;;3.60;99.90;;;;;;5043232;28;20223;-83
2021/12/14 07:41:19;;;;;;;4.22;3.83;;;3.60;99.90;;;;;;5043138;28;20207;-76
2021/12/14 07:43:52;;;;;;;4.43;4.10;;;3.60;99.90;;;;;;5036397;28;21750;-77
2021/12/14 07:46:24;;;;;;;16.65;8.82;;;3.60;99.90;;;;;;5040884;28;20230;-79
2021/12/14 07:48:54;;;;;;;7.78;6.38;;;4.10;99.90;;;;;;4996153;28;20284;-76
2021/12/14 07:51:23;;;;;;;5.45;4.90;;;4.40;99.90;;;;;;5047220;28;20284;-77
2021/12/14 07:53:54;;;;;;;4.63;4.22;;;4.40;99.90;;;;;;5039960;28;20578;-76
2021/12/14 07:56:34;;;;;;;4.30;3.90;;;4.30;99.90;;;;;;5015535;28;20230;-74
2021/12/14 07:59:03;;;;;;;4.68;4.28;;;4.20;99.90;;;;;;5028086;28;20418;-75
2021/12/14 08:01:31;;;;;;;4.82;4.43;;;4.10;99.90;;;;;;5029460;28;20627;-75
2021/12/14 08:04:06;;;;;;;4.53;4.13;;;4.10;99.90;;;;;;4992620;28;20717;-78
2021/12/14 08:06:50;;;;;;;3.70;3.50;;;4.20;99.90;;;;;;5027525;28;20759;-76
2021/12/14 08:09:48;;;;;;;4.30;3.97;;;4.30;99.90;;;;;;5029216;28;20651;-75
2021/12/14 08:12:32;;;;;;;5.07;4.68;;;4.40;99.90;;;;;;5030565;28;20211;-82
2021/12/14 08:15:08;;;;;;;6.18;4.93;;;4.60;99.90;;;;;;5032205;28;20227;-77
2021/12/14 08:17:36;;;;;;;5.28;4.88;;;5.30;99.90;;;;;;5027804;28;20222;-75
2021/12/14 08:20:05;;;;;;;5.25;4.90;;;6.30;99.90;;;;;;5032039;28;20219;-80
2021/12/14 08:22:34;;;;;;;4.97;4.55;;;7.30;99.90;;;;;;5028530;28;20647;-77
2021/12/14 08:25:04;;;;;;;5.50;5.10;;;8.20;99.90;;;;;;4966881;22;20430;-71
2021/12/14 08:27:32;;;;;;;4.93;4.53;;;8.80;99.90;;;;;;5008739;28;20242;-70
2021/12/14 08:30:02;;;;;;;4.03;3.75;;;8.80;99.90;;;;;;5002192;28;20219;-71
2021/12/14 08:32:32;;;;;;;4.40;4.10;;;8.70;99.90;;;;;;5007410;28;20505;-73
2021/12/14 08:35:03;;;;;;;4.03;3.72;;;8.50;99.90;;;;;;5002046;28;20750;-70
2021/12/14 08:37:33;;;;;;;4.38;4.03;;;8.30;99.90;;;;;;5006007;28;20745;-70
2021/12/14 08:40:06;;;;;;;4.43;4.03;;;7.90;99.90;;;;;;4992021;28;20659;-70
2021/12/14 08:42:39;;;;;;;3.85;3.55;;;7.70;99.90;;;;;;4991970;28;20236;-71
2021/12/14 08:45:26;;;;;;;4.32;3.75;;;7.60;99.90;;;;;;4994630;28;20236;-71
2021/12/14 08:47:57;;;;;;;3.80;3.50;;;7.40;99.90;;;;;;4990019;28;20620;-71
2021/12/14 08:50:25;;;;;;;4.35;3.95;;;7.30;99.90;;;;;;4995019;28;20232;-69
2021/12/14 08:52:52;;;;;;;3.60;3.30;;;7.30;99.90;;;;;;4995220;28;20228;-72
2021/12/14 08:55:22;;;;;;;4.18;3.88;;;7.20;99.90;;;;;;4991264;28;20670;-71
2021/12/14 08:57:49;;;;;;;4.70;4.30;;;7.30;99.90;;;;;;4992941;28;20594;-71
2021/12/14 09:00:20;;;;;;;4.43;4.13;;;7.30;99.90;;;;;;4987021;28;20278;-72
2021/12/14 09:02:49;;;;;;;5.53;5.03;;;7.30;99.90;;;;;;4996120;28;20227;-71
2021/12/14 09:05:21;;;;;;;4.75;4.35;;;7.40;99.90;;;;;;4992879;28;20584;-71
2021/12/14 09:07:48;;;;;;;4.57;4.15;;;7.40;99.90;;;;;;4987633;28;20307;-72
2021/12/14 09:10:22;;;;;;;5.18;4.78;;;7.60;99.90;;;;;;4990367;28;20235;-70
2021/12/14 09:12:51;;;;;;;5.22;4.72;;;8.00;99.90;;;;;;4994391;28;20326;-70
2021/12/14 09:15:24;;;;;;;5.13;4.55;;;8.30;99.90;;;;;;4994992;28;20236;-71
2021/12/14 09:17:52;;;;;;;5.07;4.68;;;8.80;99.90;;;;;;4989764;28;20317;-70
2021/12/14 09:20:24;;;;;;;4.93;4.43;;;9.30;99.90;;;;;;4994157;28;20294;-70
2021/12/14 09:22:56;;;;;;;5.00;4.50;;;9.60;99.90;;;;;;4989667;28;20661;-71
2021/12/14 09:25:29;;;;;;;5.68;5.07;;;9.70;99.90;;;;;;4992761;28;20236;-70
2021/12/14 09:27:57;;;;;;;5.93;5.00;;;9.60;99.90;;;;;;4990005;28;20656;-69
2021/12/14 09:30:29;;;;;;;5.35;4.85;;;9.20;99.90;;;;;;5004315;28;20220;-72
2021/12/14 09:32:57;;;;;;;4.60;4.20;;;8.70;99.90;;;;;;4976886;28;20625;-71
2021/12/14 09:35:29;;;;;;;5.00;4.60;;;8.30;99.90;;;;;;4989117;28;20283;-71
2021/12/14 09:37:58;;;;;;;6.30;4.80;;;8.00;99.90;;;;;;4984985;28;20235;-70
2021/12/14 09:40:34;;;;;;;4.70;4.30;;;7.80;99.90;;;;;;4990604;28;20227;-70
2021/12/14 09:43:02;;;;;;;5.75;5.13;;;7.70;99.90;;;;;;4996328;28;20228;-72
2021/12/14 09:45:33;;;;;;;5.05;4.63;;;7.60;99.90;;;;;;4991375;28;20241;-71
2021/12/14 09:48:01;;;;;;;4.80;4.35;;;7.50;99.90;;;;;;4989215;28;20695;-71
2021/12/14 09:50:32;;;;;;;5.38;4.88;;;7.40;99.90;;;;;;4993889;28;20246;-73
2021/12/14 09:53:01;;;;;;;5.05;4.55;;;7.30;99.90;;;;;;4990453;28;20212;-71
2021/12/14 09:55:33;;;;;;;4.95;4.53;;;7.20;99.90;;;;;;4992828;28;20224;-72
2021/12/14 09:58:04;;;;;;;4.25;3.90;;;7.10;99.90;;;;;;4996085;28;20300;-71
2021/12/14 10:00:33;;;;;;;4.55;4.15;;;7.10;99.90;;;;;;4988136;28;20224;-71
2021/12/14 10:03:03;;;;;;;5.43;4.43;;;7.10;99.90;;;;;;4988301;28;20228;-70
2021/12/14 10:05:36;;;;;;;5.00;4.60;;;7.10;99.90;;;;;;4992051;28;20238;-72
2021/12/14 10:08:14;;;;;;;4.68;4.28;;;7.00;99.90;;;;;;4985137;28;20759;-72
2021/12/14 10:10:47;;;;;;;4.53;4.18;;;6.90;99.90;;;;;;4994460;28;20711;-71
2021/12/14 10:13:15;;;;;;;6.25;4.90;;;6.80;99.90;;;;;;4994839;28;20225;-70
2021/12/14 10:15:47;;;;;;;4.00;3.70;;;6.60;99.90;;;;;;4992457;28;20235;-73
2021/12/14 10:18:18;;;;;;;4.30;3.90;;;6.50;99.90;;;;;;4994062;28;20589;-73
2021/12/14 10:20:50;;;;;;;4.38;3.97;;;6.50;99.90;;;;;;4997553;28;20220;-71
2021/12/14 10:23:19;;;;;;;4.53;4.10;;;6.50;99.90;;;;;;4998852;28;20239;-73
2021/12/14 10:25:56;;;;;;;4.68;4.28;;;6.50;99.90;;;;;;5001023;28;20610;-71
2021/12/14 10:28:25;;;;;;;3.65;3.38;;;6.50;99.90;;;;;;4995983;28;20749;-70
2021/12/14 10:30:56;;;;;;;4.88;4.45;;;6.50;99.90;;;;;;4998587;28;20734;-71
2021/12/14 10:33:24;;;;;;;6.07;5.57;;;6.50;99.90;;;;;;4987754;28;20247;-70
2021/12/14 10:35:59;;;;;;;6.55;5.20;;;6.60;99.90;;;;;;4999104;28;20232;-71
2021/12/14 10:38:31;;;;;;;5.53;5.10;;;6.50;99.90;;;;;;4991958;28;20641;-73
2021/12/14 10:43:51;;;;;;;4.88;4.35;;;6.40;99.90;;;;;;4989855;28;20860;-70
2021/12/14 10:46:23;;;;;;;4.53;4.15;;;6.30;99.90;;;;;;4994517;28;20228;-71
2021/12/14 10:48:52;;;;;;;4.32;3.95;;;6.40;99.90;;;;;;4992415;28;20228;-72
2021/12/14 10:51:23;;;;;;;4.22;3.85;;;6.50;99.90;;;;;;4986586;28;21075;-71
2021/12/14 10:53:52;;;;;;;4.38;3.97;;;6.50;99.90;;;;;;5009244;28;20228;-71
2021/12/14 10:56:24;;;;;;;4.55;4.18;;;6.60;99.90;;;;;;4990742;28;20268;-69
2021/12/14 10:58:53;;;;;;;4.75;4.35;;;6.60;99.90;;;;;;4989146;28;20236;-71
2021/12/14 11:01:27;;;;;;;4.65;4.25;;;6.70;99.90;;;;;;4997560;28;20289;-71
2021/12/14 11:03:58;;;;;;;4.38;3.97;;;6.70;99.90;;;;;;4993452;28;20227;-71
2021/12/14 11:06:29;;;;;;;4.95;4.55;;;6.60;99.90;;;;;;4994509;28;20425;-72
2021/12/14 11:09:39;;;;;;;4.57;4.18;;;6.60;99.90;;;;;;4994437;28;20539;-69
2021/12/14 11:11:52;;;;;;;5.00;4.60;;;6.70;99.90;;;;;;4991391;28;20613;-70
2021/12/14 11:14:23;;;;;;;4.75;4.45;;;6.80;99.90;;;;;;4995694;28;20235;-70
2021/12/14 11:19:40;;;;;;;4.75;4.35;;;6.90;99.90;;;;;;4997413;28;20246;-69
2021/12/14 11:22:15;;;;;;;5.13;4.72;;;6.70;99.90;;;;;;4991771;28;20228;-71
2021/12/14 11:24:43;;;;;;;4.40;4.07;;;6.50;99.90;;;;;;4988653;28;20239;-73
2021/12/14 11:27:18;;;;;;;6.15;5.43;;;6.30;99.90;;;;;;4995835;28;20761;-70
2021/12/14 11:29:50;;;;;;;5.80;5.30;;;6.30;99.90;;;;;;4995716;28;21206;-70
2021/12/14 11:32:19;;;;;;;5.82;5.22;;;6.40;99.90;;;;;;4991312;28;20243;-71
2021/12/14 11:34:47;;;;;;;6.32;5.72;;;6.40;99.90;;;;;;4994765;28;20635;-70
2021/12/14 11:37:20;;;;;;;7.28;5.95;;;6.40;99.90;;;;;;4993552;28;20554;-71
2021/12/14 11:39:50;;;;;;;5.80;5.22;;;6.50;99.90;;;;;;4993290;28;20222;-71
2021/12/14 11:42:26;;;;;;;6.30;5.43;;;6.50;99.90;;;;;;4999098;28;20636;-71
2021/12/14 11:44:57;;;;;;;7.07;6.35;;;6.60;99.90;;;;;;4994290;28;20800;-72
2021/12/14 11:50:15;;;;;;;7.43;5.72;;;6.60;99.90;;;;;;4995385;28;20235;-71
2021/12/14 11:52:50;;;;;;;6.20;5.70;;;6.60;99.90;;;;;;4996154;28;20224;-70
2021/12/14 11:55:28;;;;;;;5.40;5.00;;;6.60;99.90;;;;;;4991085;28;20322;-70
2021/12/14 11:58:24;;;;;;;6.57;5.97;;;6.50;99.90;;;;;;4994361;28;20251;-71
2021/12/14 12:00:55;;;;;;;7.40;6.80;;;6.40;99.90;;;;;;4979216;28;21616;-71
2021/12/14 12:03:41;;;;;;;6.82;6.22;;;6.40;99.90;;;;;;4994538;28;20228;-72
2021/12/14 12:06:14;;;;;;;7.20;6.50;;;6.50;99.90;;;;;;4989716;28;20220;-70
2021/12/14 12:11:39;;;;;;;5.57;5.07;;;6.60;99.90;;;;;;5002729;28;20242;-74
2021/12/14 12:14:28;;;;;;;5.68;5.18;;;6.70;99.90;;;;;;4993592;28;20227;-71
2021/12/14 12:16:59;;;;;;;5.40;4.75;;;6.70;99.90;;;;;;4992367;28;20712;-72
2021/12/14 12:19:29;;;;;;;5.18;4.78;;;6.80;99.90;;;;;;4989282;28;20301;-71
2021/12/14 12:22:05;;;;;;;6.38;5.03;;;6.80;99.90;;;;;;4998256;28;20566;-73
2021/12/14 12:24:35;;;;;;;5.07;4.65;;;6.80;99.90;;;;;;4993966;28;20239;-71
2021/12/14 12:27:32;;;;;;;4.50;4.10;;;6.90;99.90;;;;;;4989677;28;20806;-71
2021/12/14 12:30:31;;;;;;;5.43;4.57;;;6.90;99.90;;;;;;4991817;28;20532;-71
2021/12/14 12:33:07;;;;;;;5.32;4.90;;;6.90;99.90;;;;;;4989053;28;20512;-69
2021/12/14 12:35:37;;;;;;;4.78;4.38;;;6.90;99.90;;;;;;4984327;28;20286;-71
2021/12/14 12:38:30;;;;;;;4.80;4.40;;;7.00;99.90;;;;;;4993872;28;20744;-71
2021/12/14 12:41:02;;;;;;;5.68;4.65;;;7.10;99.90;;;;;;4992393;28;20220;-71
2021/12/14 12:43:34;;;;;;;5.82;5.20;;;7.10;99.90;;;;;;4989090;28;20220;-72
2021/12/14 12:46:13;;;;;;;5.88;4.97;;;7.00;99.90;;;;;;4993205;28;20229;-72
2021/12/14 12:49:07;;;;;;;5.90;5.30;;;6.90;99.90;;;;;;4980054;28;20594;-71
2021/12/14 12:52:04;;;;;;;6.75;6.07;;;6.80;99.90;;;;;;4994023;28;20295;-73
2021/12/14 12:54:49;;;;;;;5.65;5.13;;;6.80;99.90;;;;;;4982412;28;20232;-73
2021/12/14 12:57:32;;;;;;;5.25;4.72;;;6.80;99.90;;;;;;4993843;28;20815;-71
2021/12/14 13:00:13;;;;;;;4.97;4.45;;;6.70;99.90;;;;;;4966602;28;20212;-72
2021/12/14 13:02:45;;;;;;;4.55;4.15;;;6.70;99.90;;;;;;5005670;28;20220;-71
2021/12/14 13:05:19;;;;;;;4.70;4.30;;;6.80;99.90;;;;;;4985000;28;20224;-71
2021/12/14 13:07:50;;;;;;;4.43;4.13;;;6.80;99.90;;;;;;4995537;28;20220;-71
2021/12/14 13:10:24;;;;;;;4.45;4.05;;;6.90;99.90;;;;;;4993082;28;20706;-71
2021/12/14 13:12:57;;;;;;;30.02;16.23;;;6.90;99.90;;;;;;4957826;28;20529;-75
2021/12/14 13:15:48;;;;;;;31.60;17.65;;;7.00;99.90;;;;;;4991930;28;20224;-71
2021/12/14 13:18:41;;;;;;;19.27;11.77;;;7.00;99.90;;;;;;4990666;28;20225;-70
2021/12/14 13:21:41;;;;;;;15.27;10.75;;;7.10;99.90;;;;;;4990047;28;20666;-71
2021/12/14 13:24:19;;;;;;;13.40;8.88;;;7.20;99.90;;;;;;4989104;28;20231;-72
2021/12/14 13:27:05;;;;;;;10.75;7.22;;;7.20;99.90;;;;;;4995297;28;20701;-73
2021/12/14 13:29:38;;;;;;;7.68;6.07;;;7.20;99.90;;;;;;4968447;28;20227;-72
2021/12/14 13:32:10;;;;;;;6.30;5.30;;;7.20;99.90;;;;;;4992505;28;20227;-70
2021/12/14 13:34:42;;;;;;;6.18;5.00;;;7.20;99.90;;;;;;4988327;28;20709;-72
2021/12/14 13:37:11;;;;;;;6.22;5.45;;;7.20;99.90;;;;;;4994100;28;20228;-71
2021/12/14 13:39:40;;;;;;;5.40;4.82;;;7.20;99.90;;;;;;4991036;28;20232;-69
2021/12/14 13:42:28;;;;;;;4.40;4.00;;;7.30;99.90;;;;;;4991133;28;20309;-71
2021/12/14 13:44:55;;;;;;;5.20;4.72;;;7.30;99.90;;;;;;4993571;28;20233;-71
2021/12/14 13:47:25;;;;;;;4.82;4.32;;;7.20;99.90;;;;;;4995513;28;20236;-70
2021/12/14 13:49:55;;;;;;;4.57;4.22;;;7.10;99.90;;;;;;5002574;28;20286;-72
2021/12/14 13:52:22;;;;;;;5.10;4.60;;;7.10;99.90;;;;;;4991345;28;20224;-70
2021/12/14 13:55:24;;;;;;;5.25;4.85;;;7.00;99.90;;;;;;4994213;28;20227;-70
2021/12/14 13:57:55;;;;;;;4.72;4.32;;;6.90;99.90;;;;;;4943784;28;20240;-71